Список аэропортов
Фактическая погода:

24 июня, 15:00
Температура: +28°C (+28.0*)
Ветер: северный 1 м/с
Давление: *760 мм
несуществ. обл.
Время (МСК)Темп. СВетерВлажностьДавлениеОблачностьОсадки
21:00+24СВ, 2 м/с66%1013 гПас прояснениями
22:00+22В, 2 м/с67%1014 гПас прояснениями
23:00+21В, 2 м/с68%1014 гПас прояснениями
25 июня
00:00+20В, 2 м/с66%1014 гПас прояснениями
01:00+19В, 2 м/с68%1014 гПас прояснениями
02:00+18В, 1 м/с71%1014 гПамалооблачно
03:00+17ЮВ, 1 м/с76%1014 гПас прояснениями
04:00+18В, 1 м/с77%1014 гПаоблачно
05:00+19ЮВ, 1 м/с76%1014 гПамалооблачно
06:00+22ЮВ, 1 м/с68%1014 гПамалооблачно
07:00+25ЮВ, 2 м/с58%1014 гПаоблачно
08:00+27ЮВ, 2 м/с52%1014 гПаоблачно
09:00+30ЮВ, 2 м/с45%1014 гПаоблачно
10:00+34ЮВ, 2 м/с33%1014 гПас прояснениями
11:00+34ЮВ, 4 м/с26%1013 гПаясно
12:00+35Ю, 3 м/с24%1013 гПамалооблачно
13:00+35Ю, 3 м/с25%1013 гПамалооблачно
14:00+35Ю, 4 м/с25%1012 гПас прояснениями
15:00+35Ю, 3 м/с26%1012 гПаоблачно
16:00+34Ю, 3 м/с28%1012 гПаоблачно
17:00+33Ю, 3 м/с35%1012 гПаоблачносл. дождь
18:00+26СЗ, 1 м/с92%1012 гПаоблачнодождь
19:00+26Штиль 94%1012 гПаоблачно
20:00+26Штиль 96%1013 гПаоблачно
21:00+24В, 1 м/с96%1013 гПаоблачнодождь
22:00+22В, 1 м/с97%1013 гПамалооблачно
23:00+20ЮВ, 1 м/с99%1013 гПас прояснениями
26 июня
00:00+19Штиль 100%1012 гПаоблачно
01:00+18С, 1 м/с100%1013 гПаоблачно
02:00+18В, 1 м/с100%1013 гПаоблачно
03:00+18В, 1 м/с100%1013 гПас прояснениями
04:00+17ЮВ, 1 м/с99%1013 гПамалооблачно
05:00+18ЮВ, 1 м/с98%1013 гПаясно
06:00+19Ю, 2 м/с96%1013 гПаясно
07:00+21Ю, 2 м/с89%1014 гПамалооблачно
08:00+24Ю, 3 м/с75%1014 гПаясно
09:00+25ЮЗ, 3 м/с70%1014 гПас прояснениями
10:00+26ЮЗ, 3 м/с70%1015 гПамалооблачно
11:00+27ЮЗ, 3 м/с62%1015 гПаясно
12:00+28ЮЗ, 3 м/с54%1015 гПаясно
13:00+29ЮЗ, 3 м/с47%1015 гПамалооблачно
14:00+29ЮЗ, 4 м/с43%1015 гПас прояснениями
15:00+28ЮЗ, 4 м/с44%1015 гПаоблачно
16:00+28ЮЗ, 4 м/с47%1015 гПас прояснениями
17:00+27З, 4 м/с55%1016 гПамалооблачно
18:00+25З, 4 м/с58%1017 гПаясно
19:00+24З, 3 м/с60%1017 гПаясно
20:00+22З, 1 м/с71%1017 гПаясно
21:00+20ЮЗ, 1 м/с87%1017 гПаясно